createdAt,value
2018-08-25T00:01:58.429Z,1.50
2018-08-25T00:04:26.824Z,1.70
2018-08-25T00:06:55.179Z,2.00
2018-08-25T00:09:23.535Z,1.90
2018-08-25T00:11:51.948Z,2.47
2018-08-25T00:14:20.265Z,2.70
2018-08-25T00:16:48.625Z,2.80
2018-08-25T00:19:16.954Z,2.60
2018-08-25T00:21:45.298Z,2.43
2018-08-25T00:24:13.814Z,2.60
2018-08-25T00:26:42.104Z,5.23
2018-08-25T00:29:10.738Z,5.00
2018-08-25T00:31:39.218Z,13.27
2018-08-25T00:34:07.538Z,19.20
2018-08-25T00:36:35.809Z,3.90
2018-08-25T00:39:05.796Z,3.30
2018-08-25T00:41:34.090Z,3.23
2018-08-25T00:44:02.732Z,8.70
2018-08-25T00:46:31.423Z,9.67
2018-08-25T00:48:59.827Z,11.13
2018-08-25T00:51:28.112Z,8.97
2018-08-25T00:53:56.719Z,5.57
2018-08-25T00:56:25.042Z,4.97
2018-08-25T00:58:53.326Z,4.37
2018-08-25T01:01:21.594Z,4.60
2018-08-25T01:03:49.835Z,4.73
2018-08-25T01:06:18.126Z,4.33
2018-08-25T01:08:46.389Z,4.33
2018-08-25T01:11:14.715Z,4.17
2018-08-25T01:13:43.332Z,4.17
2018-08-25T01:16:11.662Z,5.07
2018-08-25T01:18:40.309Z,4.30
2018-08-25T01:21:08.596Z,4.80
2018-08-25T01:23:36.945Z,4.70
2018-08-25T01:26:05.491Z,5.13
2018-08-25T01:28:33.823Z,5.57
2018-08-25T01:31:02.254Z,4.80
2018-08-25T01:33:30.758Z,4.70
2018-08-25T01:35:59.121Z,4.17
2018-08-25T01:38:27.812Z,3.97
2018-08-25T01:40:56.545Z,3.87
2018-08-25T01:43:24.877Z,4.10
2018-08-25T01:45:53.643Z,4.67
2018-08-25T01:48:22.113Z,4.93
2018-08-25T01:50:52.125Z,4.73
2018-08-25T01:53:20.515Z,5.23
2018-08-25T01:55:49.203Z,6.40
2018-08-25T01:58:17.658Z,6.70
2018-08-25T02:00:46.148Z,7.10
2018-08-25T02:03:15.239Z,7.07
2018-08-25T02:05:43.943Z,7.00
2018-08-25T02:08:12.370Z,6.70
2018-08-25T02:10:40.698Z,6.40
2018-08-25T02:13:09.289Z,4.93
2018-08-25T02:15:37.758Z,4.77
2018-08-25T02:18:06.139Z,4.87
2018-08-25T02:20:34.457Z,4.80
2018-08-25T02:23:02.776Z,4.30
2018-08-25T02:25:31.079Z,4.67
2018-08-25T02:27:59.484Z,5.40
2018-08-25T02:30:27.801Z,4.67
2018-08-25T02:32:56.133Z,3.60
2018-08-25T02:35:24.564Z,2.40
2018-08-25T02:37:52.991Z,2.03
2018-08-25T02:40:21.847Z,2.40
2018-08-25T02:42:50.341Z,2.80
2018-08-25T02:45:18.955Z,2.23
2018-08-25T02:47:47.337Z,2.03
2018-08-25T02:50:15.888Z,1.53
2018-08-25T02:52:44.329Z,1.90
2018-08-25T02:55:12.740Z,2.70
2018-08-25T02:57:41.095Z,3.03
2018-08-25T03:00:09.838Z,3.37
2018-08-25T03:02:38.168Z,2.53
2018-08-25T03:05:07.008Z,1.67
2018-08-25T03:07:35.705Z,1.70
2018-08-25T03:10:04.606Z,1.27
2018-08-25T03:12:33.192Z,0.90
2018-08-25T03:15:01.869Z,1.00
2018-08-25T03:17:30.736Z,0.80
2018-08-25T03:19:59.165Z,0.80
2018-08-25T03:22:27.971Z,0.80
2018-08-25T03:24:56.337Z,0.90
2018-08-25T03:27:24.674Z,0.50
2018-08-25T03:29:53.208Z,0.40
2018-08-25T03:32:21.547Z,0.60
2018-08-25T03:34:49.942Z,0.80
2018-08-25T03:37:18.290Z,0.77
2018-08-25T03:39:46.668Z,0.70
2018-08-25T03:42:15.368Z,0.80
2018-08-25T03:44:44.143Z,0.70
2018-08-25T03:47:12.491Z,0.60
2018-08-25T03:49:40.856Z,0.70
2018-08-25T03:52:09.224Z,0.70
2018-08-25T03:54:37.570Z,0.50
2018-08-25T03:57:06.309Z,0.50
2018-08-25T03:59:34.688Z,0.57
2018-08-25T04:02:03.025Z,0.87
2018-08-25T04:04:31.419Z,0.70
2018-08-25T04:06:59.784Z,0.90
2018-08-25T04:09:28.206Z,0.70
2018-08-25T04:11:56.913Z,0.70
2018-08-25T04:14:25.236Z,0.77
2018-08-25T04:16:54.091Z,0.83
2018-08-25T04:19:22.518Z,0.67
2018-08-25T04:21:51.258Z,0.90
2018-08-25T04:24:19.598Z,0.70
2018-08-25T04:26:47.974Z,1.00
2018-08-25T04:29:16.387Z,0.90
2018-08-25T04:31:45.173Z,0.83
2018-08-25T04:34:13.813Z,1.30
2018-08-25T04:36:42.180Z,1.20
2018-08-25T04:39:11.680Z,1.20
2018-08-25T04:41:40.016Z,1.57
2018-08-25T04:44:08.598Z,1.00
2018-08-25T04:46:37.019Z,1.07
2018-08-25T04:49:05.601Z,1.27
2018-08-25T04:51:33.969Z,1.20
2018-08-25T04:54:02.287Z,1.00
2018-08-25T04:56:30.615Z,1.20
2018-08-25T04:58:58.936Z,0.87
2018-08-25T05:01:27.229Z,1.03
2018-08-25T05:03:55.537Z,1.53
2018-08-25T05:06:23.966Z,1.20
2018-08-25T05:08:52.236Z,1.23
2018-08-25T05:11:20.589Z,1.60
2018-08-25T05:13:48.875Z,1.13
2018-08-25T05:16:17.213Z,1.10
2018-08-25T05:18:45.594Z,1.17
2018-08-25T05:21:14.134Z,0.97
2018-08-25T05:23:42.461Z,0.90
2018-08-25T05:26:10.780Z,1.10
2018-08-25T05:28:39.142Z,1.30
2018-08-25T05:31:07.809Z,1.10
2018-08-25T05:33:36.132Z,1.03
2018-08-25T05:36:04.531Z,1.27
2018-08-25T05:38:33.331Z,1.40
2018-08-25T05:41:01.669Z,1.27
2018-08-25T05:43:30.047Z,1.00
2018-08-25T05:45:58.343Z,1.27
2018-08-25T05:48:26.648Z,1.40
2018-08-25T05:50:55.119Z,1.43
2018-08-25T05:53:23.427Z,1.90
2018-08-25T05:55:51.701Z,2.10
2018-08-25T05:58:20.202Z,1.93
2018-08-25T06:00:50.110Z,1.37
2018-08-25T06:03:18.684Z,1.33
2018-08-25T06:05:47.030Z,1.20
2018-08-25T06:08:15.338Z,1.20
2018-08-25T06:10:43.644Z,0.80
2018-08-25T06:13:11.943Z,0.93
2018-08-25T06:15:40.220Z,1.00
2018-08-25T06:18:08.573Z,0.90
2018-08-25T06:20:36.879Z,0.90
2018-08-25T06:23:05.286Z,1.20
2018-08-25T06:25:33.724Z,1.10
2018-08-25T06:28:02.030Z,1.00
2018-08-25T06:30:30.366Z,0.73
2018-08-25T06:32:58.673Z,1.10
2018-08-25T06:35:27.656Z,0.83
2018-08-25T06:37:56.013Z,0.90
2018-08-25T06:40:24.514Z,0.70
2018-08-25T06:42:52.780Z,0.90
2018-08-25T06:45:21.102Z,1.30
2018-08-25T06:47:49.507Z,0.80
2018-08-25T06:50:17.935Z,1.20
2018-08-25T06:52:46.274Z,0.80
2018-08-25T06:55:14.589Z,0.70
2018-08-25T06:57:42.891Z,0.80
2018-08-25T07:00:11.181Z,0.70
2018-08-25T07:02:39.443Z,0.90
2018-08-25T07:05:07.822Z,0.60
2018-08-25T07:07:36.420Z,0.70
2018-08-25T07:10:04.782Z,0.87
2018-08-25T07:12:33.062Z,0.83
2018-08-25T07:15:01.330Z,0.70
2018-08-25T07:17:29.592Z,0.70
2018-08-25T07:19:58.001Z,0.70
2018-08-25T07:22:26.243Z,0.90
2018-08-25T07:24:54.510Z,1.03
2018-08-25T07:27:22.772Z,0.90
2018-08-25T07:29:51.056Z,0.70
2018-08-25T07:32:19.446Z,0.77
2018-08-25T07:34:48.292Z,0.72
2018-08-25T07:37:17.137Z,0.80
2018-08-25T07:39:45.997Z,0.90
2018-08-25T07:42:14.307Z,0.67
2018-08-25T07:44:42.648Z,0.87
2018-08-25T07:47:10.952Z,0.73
2018-08-25T07:49:39.292Z,0.70
2018-08-25T07:52:07.766Z,0.83
2018-08-25T07:54:36.055Z,0.77
2018-08-25T07:57:05.324Z,1.00
2018-08-25T07:59:33.623Z,0.90
2018-08-25T08:02:02.161Z,0.97
2018-08-25T08:04:30.992Z,0.80
2018-08-25T08:06:59.846Z,1.07
2018-08-25T08:09:28.955Z,0.82
2018-08-25T08:11:57.889Z,0.70
2018-08-25T08:14:26.869Z,0.80
2018-08-25T08:16:55.685Z,1.00
2018-08-25T08:19:24.566Z,0.60
2018-08-25T08:21:53.381Z,0.85
2018-08-25T08:24:22.265Z,1.10
2018-08-25T08:26:51.780Z,0.75
2018-08-25T08:29:20.644Z,0.60
2018-08-25T08:31:49.465Z,0.98
2018-08-25T08:34:18.306Z,0.85
2018-08-25T08:36:47.182Z,0.90
2018-08-25T08:39:16.037Z,0.98
2018-08-25T08:41:44.926Z,0.70
2018-08-25T08:44:13.781Z,0.95
2018-08-25T08:46:42.646Z,0.90
2018-08-25T08:49:11.607Z,0.78
2018-08-25T08:51:40.514Z,1.27
2018-08-25T08:54:09.570Z,1.22
2018-08-25T08:56:38.513Z,0.90
2018-08-25T08:59:08.060Z,0.90
2018-08-25T09:01:36.653Z,0.87
2018-08-25T09:04:05.590Z,0.98
2018-08-25T09:06:34.765Z,0.50
2018-08-25T09:09:04.540Z,0.70
2018-08-25T09:11:34.076Z,0.82
2018-08-25T09:14:03.363Z,0.85
2018-08-25T09:16:32.207Z,0.80
2018-08-25T09:19:01.093Z,0.70
2018-08-25T09:21:30.323Z,0.68
2018-08-25T09:23:59.338Z,0.60
2018-08-25T09:26:28.274Z,0.60
2018-08-25T09:28:57.485Z,0.50
2018-08-25T09:31:26.355Z,0.60
2018-08-25T09:33:55.254Z,0.60
2018-08-25T09:36:24.184Z,0.40
2018-08-25T09:38:53.265Z,0.75
2018-08-25T09:41:22.165Z,0.85
2018-08-25T09:43:51.368Z,0.85
2018-08-25T09:46:20.274Z,0.50
2018-08-25T09:48:51.435Z,0.90
2018-08-25T09:51:24.208Z,0.40
2018-08-25T09:53:59.639Z,0.53
2018-08-25T09:56:29.959Z,0.50
2018-08-25T09:58:58.402Z,0.47
2018-08-25T10:01:29.153Z,0.30
2018-08-25T10:04:00.801Z,0.60
2018-08-25T10:06:29.102Z,0.83
2018-08-25T10:08:57.426Z,0.50
2018-08-25T10:11:25.776Z,0.30
2018-08-25T10:13:54.102Z,0.80
2018-08-25T10:16:22.483Z,1.00
2018-08-25T10:18:51.229Z,0.60
2018-08-25T10:21:19.731Z,1.13
2018-08-25T10:23:48.076Z,0.70
2018-08-25T10:26:16.802Z,1.10
2018-08-25T10:28:45.413Z,0.90
2018-08-25T10:31:14.245Z,0.90
2018-08-25T10:33:42.677Z,0.90
2018-08-25T10:36:11.761Z,0.90
2018-08-25T10:38:40.152Z,0.93
2018-08-25T10:41:08.459Z,0.70
2018-08-25T10:43:36.783Z,1.07
2018-08-25T10:46:05.735Z,1.07
2018-08-25T10:48:34.205Z,1.30
2018-08-25T10:51:03.393Z,1.40
2018-08-25T10:53:31.772Z,0.90
2018-08-25T10:56:00.701Z,1.03
2018-08-25T10:58:29.017Z,0.90
2018-08-25T11:00:57.522Z,1.07
2018-08-25T11:03:25.977Z,0.83
2018-08-25T11:05:54.336Z,0.70
2018-08-25T11:08:23.025Z,0.77
2018-08-25T11:10:51.636Z,0.90
2018-08-25T11:13:20.212Z,1.00
2018-08-25T11:15:48.811Z,0.80
2018-08-25T11:18:18.000Z,0.70
2018-08-25T11:20:46.352Z,0.72
2018-08-25T11:23:15.220Z,0.80
2018-08-25T11:25:45.753Z,0.75
2018-08-25T11:28:14.180Z,1.10
2018-08-25T11:30:42.675Z,0.80
2018-08-25T11:33:11.031Z,0.60
2018-08-25T11:35:40.106Z,1.07
2018-08-25T11:38:08.861Z,0.90
2018-08-25T11:40:37.377Z,1.00
2018-08-25T11:43:05.746Z,1.00
2018-08-25T11:45:34.275Z,0.87
2018-08-25T11:48:03.217Z,0.80
2018-08-25T11:50:31.520Z,1.60
2018-08-25T11:52:59.872Z,0.80
2018-08-25T11:55:28.240Z,0.90
2018-08-25T11:57:56.624Z,0.90
2018-08-25T12:00:25.305Z,0.77
2018-08-25T12:02:53.687Z,0.90
2018-08-25T12:05:22.088Z,1.20
2018-08-25T12:07:50.444Z,1.00
2018-08-25T12:10:18.895Z,0.90
2018-08-25T12:12:47.279Z,0.83
2018-08-25T12:15:15.638Z,0.80
2018-08-25T12:17:43.973Z,0.70
2018-08-25T12:20:12.299Z,0.50
2018-08-25T12:22:40.655Z,0.60
2018-08-25T12:25:09.677Z,0.73
2018-08-25T12:27:38.024Z,0.83
2018-08-25T12:30:07.099Z,0.87
2018-08-25T12:32:35.468Z,1.00
2018-08-25T12:35:04.416Z,1.60
2018-08-25T12:37:32.806Z,1.00
2018-08-25T12:40:01.135Z,0.80
2018-08-25T12:42:29.448Z,0.78
2018-08-25T12:44:58.353Z,0.95
2018-08-25T12:47:28.110Z,1.27
2018-08-25T12:49:57.902Z,0.90
2018-08-25T12:52:26.802Z,0.55
2018-08-25T12:54:55.705Z,0.93
2018-08-25T12:57:24.590Z,1.00
2018-08-25T12:59:53.512Z,1.22
2018-08-25T13:02:22.419Z,1.30
2018-08-25T13:04:50.788Z,0.80
2018-08-25T13:07:19.161Z,0.80
2018-08-25T13:09:47.533Z,0.67
2018-08-25T13:12:15.875Z,0.70
2018-08-25T13:14:44.478Z,0.70
2018-08-25T13:17:13.018Z,0.40
2018-08-25T13:19:41.669Z,0.55
2018-08-25T13:22:10.087Z,0.60
2018-08-25T13:24:38.518Z,0.80
2018-08-25T13:27:06.893Z,0.83
2018-08-25T13:29:35.265Z,0.70
2018-08-25T13:32:03.839Z,0.80
2018-08-25T13:34:32.384Z,0.70
2018-08-25T13:37:00.766Z,0.80
2018-08-25T13:39:29.168Z,0.83
2018-08-25T13:41:57.549Z,0.60
2018-08-25T13:44:25.937Z,0.70
2018-08-25T13:46:54.284Z,0.67
2018-08-25T13:49:26.130Z,0.97
2018-08-25T13:51:54.510Z,0.80
2018-08-25T13:54:22.862Z,0.70
2018-08-25T13:56:51.251Z,0.70
2018-08-25T13:59:19.630Z,0.80
2018-08-25T14:01:48.305Z,0.50
2018-08-25T14:04:17.276Z,0.60
2018-08-25T14:06:46.669Z,0.68
2018-08-25T14:09:15.563Z,0.90
2018-08-25T14:11:44.449Z,0.55
2018-08-25T14:14:13.423Z,0.65
2018-08-25T14:16:42.357Z,0.68
2018-08-25T14:19:11.635Z,0.72
2018-08-25T14:21:40.517Z,0.70
2018-08-25T14:24:09.758Z,0.70
2018-08-25T14:26:38.633Z,0.90
2018-08-25T14:29:07.544Z,1.05
2018-08-25T14:31:36.455Z,0.70
2018-08-25T14:34:05.396Z,0.90
2018-08-25T14:36:34.267Z,0.80
2018-08-25T14:39:04.600Z,0.75
2018-08-25T14:41:33.644Z,1.17
2018-08-25T14:44:02.920Z,0.72
2018-08-25T14:46:31.793Z,0.75
2018-08-25T14:49:00.708Z,0.80
2018-08-25T14:51:29.604Z,0.68
2018-08-25T14:53:58.520Z,0.60
2018-08-25T14:56:27.899Z,0.57
2018-08-25T14:58:57.157Z,0.60
2018-08-25T15:01:25.988Z,0.70
2018-08-25T15:03:55.087Z,0.90
2018-08-25T15:06:23.966Z,0.75
2018-08-25T15:08:52.868Z,0.82
2018-08-25T15:11:21.718Z,1.20
2018-08-25T15:13:50.634Z,1.67
2018-08-25T15:16:19.329Z,0.87
2018-08-25T15:18:47.729Z,0.80
2018-08-25T15:21:16.238Z,0.85
2018-08-25T15:23:45.163Z,0.70
2018-08-25T15:26:14.033Z,0.88
2018-08-25T15:28:42.917Z,1.57
2018-08-25T15:31:11.761Z,0.90
2018-08-25T15:33:40.645Z,0.82
2018-08-25T15:36:09.551Z,0.98
2018-08-25T15:38:38.437Z,1.00
2018-08-25T15:41:07.308Z,1.17
2018-08-25T15:43:36.205Z,0.90
2018-08-25T15:46:05.453Z,1.22
2018-08-25T15:48:34.349Z,0.80
2018-08-25T15:51:03.263Z,0.93
2018-08-25T15:53:32.165Z,1.15
2018-08-25T15:56:01.018Z,0.95
2018-08-25T15:58:29.932Z,0.60
2018-08-25T16:00:58.254Z,0.93
2018-08-25T16:03:27.211Z,0.60
2018-08-25T16:05:56.729Z,0.70
2018-08-25T16:08:25.737Z,0.80
2018-08-25T16:10:54.614Z,0.65
2018-08-25T16:13:23.507Z,0.60
2018-08-25T16:15:52.373Z,0.72
2018-08-25T16:18:21.288Z,0.75
2018-08-25T16:20:50.151Z,0.93
2018-08-25T16:23:19.082Z,1.07
2018-08-25T16:25:48.049Z,0.93
2018-08-25T16:28:16.954Z,1.20
2018-08-25T16:30:46.218Z,0.90
2018-08-25T16:33:15.099Z,0.80
2018-08-25T16:35:44.157Z,0.62
2018-08-25T16:38:13.229Z,0.72
2018-08-25T16:40:42.083Z,0.68
2018-08-25T16:43:11.062Z,0.70
2018-08-25T16:45:40.010Z,0.80
2018-08-25T16:48:08.924Z,0.80
2018-08-25T16:50:37.763Z,0.90
2018-08-25T16:53:06.637Z,0.95
2018-08-25T16:55:35.501Z,0.90
2018-08-25T16:58:04.924Z,1.00
2018-08-25T17:00:33.795Z,0.85
2018-08-25T17:03:02.214Z,1.20
2018-08-25T17:05:31.125Z,0.90
2018-08-25T17:07:59.985Z,0.80
2018-08-25T17:10:28.944Z,0.80
2018-08-25T17:12:58.369Z,1.47
2018-08-25T17:15:27.755Z,1.37
2018-08-25T17:17:56.661Z,1.20
2018-08-25T17:20:25.911Z,1.27
2018-08-25T17:22:54.874Z,1.12
2018-08-25T17:25:23.748Z,1.15
2018-08-25T17:27:52.696Z,1.42
2018-08-25T17:30:21.653Z,1.17
2018-08-25T17:32:49.986Z,1.55
2018-08-25T17:35:18.351Z,1.20
2018-08-25T17:37:46.733Z,1.00
2018-08-25T17:40:15.681Z,1.27
2018-08-25T17:42:44.010Z,1.10
2018-08-25T17:45:13.025Z,1.20
2018-08-25T17:47:42.032Z,1.12
2018-08-25T17:50:10.948Z,0.80
2018-08-25T17:52:39.289Z,0.70
2018-08-25T17:55:08.226Z,0.70
2018-08-25T17:57:36.674Z,0.70
2018-08-25T18:00:06.473Z,0.90
2018-08-25T18:02:34.925Z,1.07
2018-08-25T18:05:03.657Z,1.10
2018-08-25T18:07:32.526Z,0.93
2018-08-25T18:10:01.405Z,1.00
2018-08-25T18:12:30.331Z,1.07
2018-08-25T18:14:58.685Z,1.00
2018-08-25T18:17:27.035Z,1.10
2018-08-25T18:19:55.547Z,0.93
2018-08-25T18:22:23.885Z,0.90
2018-08-25T18:24:52.802Z,1.00
2018-08-25T18:27:21.152Z,1.10
2018-08-25T18:29:49.667Z,1.23
2018-08-25T18:32:17.966Z,1.40
2018-08-25T18:34:46.311Z,1.00
2018-08-25T18:37:14.836Z,1.20
2018-08-25T18:39:46.804Z,1.10
2018-08-25T18:42:15.177Z,0.80
2018-08-25T18:44:44.069Z,1.80
2018-08-25T18:47:12.547Z,1.20
2018-08-25T18:49:41.184Z,1.17
2018-08-25T18:52:09.798Z,1.13
2018-08-25T18:54:38.352Z,1.07
2018-08-25T18:57:07.323Z,1.03
2018-08-25T18:59:36.006Z,1.87
2018-08-25T19:02:05.257Z,1.00
2018-08-25T19:04:34.217Z,1.03
2018-08-25T19:07:02.920Z,0.90
2018-08-25T19:09:31.517Z,1.00
2018-08-25T19:11:59.834Z,1.13
2018-08-25T19:14:28.313Z,1.00
2018-08-25T19:16:56.744Z,1.07
2018-08-25T19:19:25.278Z,1.03
2018-08-25T19:21:53.907Z,1.07
2018-08-25T19:24:22.794Z,0.90
2018-08-25T19:26:51.458Z,1.00
2018-08-25T19:29:19.846Z,0.93
2018-08-25T19:31:48.380Z,0.97
2018-08-25T19:34:16.869Z,1.00
2018-08-25T19:36:45.435Z,1.27
2018-08-25T19:39:13.779Z,1.30
2018-08-25T19:41:42.495Z,1.23
2018-08-25T19:44:11.038Z,1.30
2018-08-25T19:46:39.429Z,1.10
2018-08-25T19:49:07.878Z,1.30
2018-08-25T19:51:36.579Z,1.37
2018-08-25T19:54:05.318Z,1.23
2018-08-25T19:56:33.674Z,1.43
2018-08-25T19:59:02.092Z,1.40
2018-08-25T20:01:30.558Z,1.10
2018-08-25T20:03:59.179Z,1.20
2018-08-25T20:06:27.688Z,1.33
2018-08-25T20:08:56.441Z,1.20
2018-08-25T20:11:24.797Z,1.50
2018-08-25T20:13:53.114Z,1.53
2018-08-25T20:16:21.456Z,1.70
2018-08-25T20:18:49.832Z,1.70
2018-08-25T20:21:18.156Z,1.37
2018-08-25T20:23:46.486Z,1.60
2018-08-25T20:26:14.790Z,1.67
2018-08-25T20:28:43.616Z,1.50
2018-08-25T20:31:11.990Z,1.57
2018-08-25T20:33:40.319Z,1.67
2018-08-25T20:36:08.722Z,1.17
2018-08-25T20:38:37.058Z,1.23
2018-08-25T20:41:05.386Z,1.30
2018-08-25T20:43:33.730Z,1.50
2018-08-25T20:46:02.134Z,1.43
2018-08-25T20:48:30.634Z,1.27
2018-08-25T20:50:58.912Z,1.30
2018-08-25T20:53:27.349Z,1.90
2018-08-25T20:55:55.783Z,1.63
2018-08-25T20:58:24.280Z,1.90
2018-08-25T21:00:52.700Z,1.90
2018-08-25T21:03:21.121Z,1.30
2018-08-25T21:05:49.460Z,1.70
2018-08-25T21:08:17.776Z,2.00
2018-08-25T21:10:46.167Z,1.60
2018-08-25T21:13:14.524Z,2.10
2018-08-25T21:15:42.925Z,1.50
2018-08-25T21:18:11.392Z,1.77
2018-08-25T21:20:39.744Z,1.60
2018-08-25T21:23:08.116Z,1.37
2018-08-25T21:25:36.505Z,1.77
2018-08-25T21:28:05.183Z,1.30
2018-08-25T21:30:33.508Z,1.80
2018-08-25T21:33:01.895Z,1.57
2018-08-25T21:35:30.322Z,1.80
2018-08-25T21:37:58.728Z,1.97
2018-08-25T21:40:27.060Z,2.80
2018-08-25T21:42:55.460Z,2.47
2018-08-25T21:45:23.937Z,2.10
2018-08-25T21:47:52.272Z,2.23
2018-08-25T21:50:20.576Z,1.90
2018-08-25T21:52:48.965Z,2.00
2018-08-25T21:55:17.305Z,1.97
2018-08-25T21:57:45.621Z,1.90
2018-08-25T22:00:14.262Z,2.57
2018-08-25T22:02:42.579Z,2.10
2018-08-25T22:05:10.885Z,2.00
2018-08-25T22:07:39.471Z,2.43
2018-08-25T22:10:08.360Z,2.07
2018-08-25T22:12:36.691Z,1.97
2018-08-25T22:15:05.046Z,1.97
2018-08-25T22:17:33.418Z,2.23
2018-08-25T22:20:01.854Z,2.00
2018-08-25T22:22:30.249Z,2.10
2018-08-25T22:24:58.851Z,2.53
2018-08-25T22:27:27.192Z,2.83
2018-08-25T22:29:55.955Z,2.13
2018-08-25T22:32:24.258Z,2.00
2018-08-25T22:34:52.658Z,1.93
2018-08-25T22:37:21.003Z,2.20
2018-08-25T22:39:49.396Z,2.67
2018-08-25T22:42:17.737Z,2.00
2018-08-25T22:44:46.185Z,2.30
2018-08-25T22:47:14.871Z,2.33
2018-08-25T22:49:43.480Z,2.90
2018-08-25T22:52:11.806Z,2.90
2018-08-25T22:54:40.159Z,2.90
2018-08-25T22:57:08.466Z,2.80
2018-08-25T22:59:36.756Z,3.23
2018-08-25T23:02:05.180Z,2.77
2018-08-25T23:04:33.548Z,3.30
2018-08-25T23:07:01.895Z,3.07
2018-08-25T23:09:30.185Z,3.77
2018-08-25T23:11:58.481Z,3.27
2018-08-25T23:14:26.814Z,3.50
2018-08-25T23:16:55.789Z,3.00
2018-08-25T23:19:24.131Z,3.43
2018-08-25T23:21:52.469Z,2.90
2018-08-25T23:24:20.787Z,2.90
2018-08-25T23:26:49.156Z,3.30
2018-08-25T23:29:17.512Z,3.30
2018-08-25T23:31:45.794Z,3.30
2018-08-25T23:34:14.088Z,3.57
2018-08-25T23:36:42.907Z,3.40
2018-08-25T23:39:11.494Z,2.97
2018-08-25T23:41:39.824Z,3.37
2018-08-25T23:44:08.103Z,3.43
2018-08-25T23:46:36.428Z,2.80
2018-08-25T23:49:05.100Z,3.30
2018-08-25T23:51:33.400Z,3.50
2018-08-25T23:54:01.970Z,3.03
2018-08-25T23:56:30.283Z,3.53
2018-08-25T23:58:58.573Z,3.03
